createdAt,value
2023-01-13T00:01:36.398Z,8.40
2023-01-13T00:04:06.560Z,8.40
2023-01-13T00:06:35.965Z,8.40
2023-01-13T00:09:05.662Z,8.40
2023-01-13T00:11:36.797Z,8.40
2023-01-13T00:14:06.683Z,8.40
2023-01-13T00:16:36.053Z,8.30
2023-01-13T00:19:05.834Z,8.40
2023-01-13T00:21:36.014Z,8.40
2023-01-13T00:24:05.847Z,8.40
2023-01-13T00:26:36.742Z,8.40
2023-01-13T00:29:06.653Z,8.40
2023-01-13T00:31:36.150Z,8.50
2023-01-13T00:34:06.317Z,8.50
2023-01-13T00:36:35.722Z,8.50
2023-01-13T00:39:05.522Z,8.50
2023-01-13T00:41:49.878Z,8.50
2023-01-13T00:44:19.937Z,8.50
2023-01-13T00:46:49.542Z,8.40
2023-01-13T00:49:19.350Z,8.40
2023-01-13T00:51:48.804Z,8.40
2023-01-13T00:54:18.876Z,8.40
2023-01-13T00:56:49.782Z,8.40
2023-01-13T00:59:19.589Z,8.40
2023-01-13T01:01:49.152Z,8.40
2023-01-13T01:04:18.961Z,8.40
2023-01-13T01:06:48.273Z,8.40
2023-01-13T01:09:18.688Z,8.40
2023-01-13T01:11:49.396Z,8.50
2023-01-13T01:14:19.112Z,8.50
2023-01-13T01:16:48.505Z,8.50
2023-01-13T01:19:18.962Z,8.50
2023-01-13T01:21:48.541Z,8.50
2023-01-13T01:24:18.253Z,8.50
2023-01-13T01:26:50.219Z,8.50
2023-01-13T01:29:20.079Z,8.50
2023-01-13T01:31:49.382Z,8.50
2023-01-13T01:34:19.094Z,8.50
2023-01-13T01:36:48.403Z,8.50
2023-01-13T01:39:18.957Z,8.50
2023-01-13T01:42:03.633Z,8.50
2023-01-13T01:44:55.562Z,8.50
2023-01-13T01:47:26.770Z,8.60
2023-01-13T01:49:58.830Z,8.60
2023-01-13T01:52:32.469Z,8.60
2023-01-13T01:55:06.576Z,8.60
2023-01-13T01:57:43.571Z,8.60
2023-01-13T02:00:14.446Z,8.60
2023-01-13T02:02:46.730Z,8.60
2023-01-13T02:05:17.401Z,8.60
2023-01-13T02:07:49.520Z,8.60
2023-01-13T02:10:22.199Z,8.60
2023-01-13T02:12:52.945Z,8.60
2023-01-13T02:15:29.010Z,8.60
2023-01-13T02:18:33.537Z,8.50
2023-01-13T02:21:37.114Z,8.50
2023-01-13T02:24:51.965Z,8.40
2023-01-13T02:27:49.707Z,8.40
2023-01-13T02:30:46.309Z,8.30
2023-01-13T02:33:28.635Z,8.30
2023-01-13T02:36:04.252Z,8.30
2023-01-13T02:38:38.804Z,8.20
2023-01-13T02:41:27.322Z,8.20
2023-01-13T02:44:10.850Z,8.20
2023-01-13T02:46:51.173Z,8.20
2023-01-13T02:49:24.283Z,8.10
2023-01-13T02:51:56.717Z,8.10
2023-01-13T02:54:30.451Z,8.00
2023-01-13T02:57:02.430Z,8.10
2023-01-13T02:59:33.004Z,8.00
2023-01-13T03:02:04.844Z,8.10
2023-01-13T03:04:57.779Z,8.00
2023-01-13T03:08:10.903Z,8.10
2023-01-13T03:10:50.446Z,8.10
2023-01-13T03:13:36.627Z,8.10
2023-01-13T03:16:15.397Z,8.10
2023-01-13T03:18:52.428Z,8.10
2023-01-13T03:21:27.831Z,8.00
2023-01-13T03:24:05.167Z,8.00
2023-01-13T03:26:42.467Z,8.10
2023-01-13T03:29:18.707Z,8.00
2023-01-13T03:31:55.351Z,8.00
2023-01-13T03:34:31.261Z,8.10
2023-01-13T03:37:05.249Z,8.10
2023-01-13T03:39:38.235Z,8.10
2023-01-13T03:42:11.727Z,8.10
2023-01-13T03:44:46.856Z,8.10
2023-01-13T03:47:23.227Z,8.10
2023-01-13T03:49:58.413Z,8.10
2023-01-13T03:52:33.530Z,8.10
2023-01-13T03:55:08.882Z,8.10
2023-01-13T03:57:43.293Z,8.10
2023-01-13T04:00:16.232Z,8.20
2023-01-13T04:02:53.415Z,8.20
2023-01-13T04:05:25.276Z,8.10
2023-01-13T04:08:02.631Z,8.20
2023-01-13T04:10:37.540Z,8.10
2023-01-13T04:13:10.808Z,8.10
2023-01-13T04:15:42.738Z,8.10
2023-01-13T04:18:15.316Z,8.20
2023-01-13T04:20:49.093Z,8.10
2023-01-13T04:23:19.815Z,8.10
2023-01-13T04:25:49.906Z,8.20
2023-01-13T04:28:20.319Z,8.20
2023-01-13T04:30:49.842Z,8.20
2023-01-13T04:33:20.880Z,8.20
2023-01-13T04:35:52.845Z,8.20
2023-01-13T04:38:23.171Z,8.20
2023-01-13T04:40:52.656Z,8.20
2023-01-13T04:43:22.366Z,8.20
2023-01-13T04:45:51.870Z,8.10
2023-01-13T04:48:21.584Z,8.20
2023-01-13T04:50:52.514Z,8.20
2023-01-13T04:53:22.330Z,8.20
2023-01-13T04:55:52.411Z,8.20
2023-01-13T04:58:22.534Z,8.20
2023-01-13T05:00:52.881Z,8.20
2023-01-13T05:03:24.583Z,8.30
2023-01-13T05:05:55.475Z,8.30
2023-01-13T05:08:25.214Z,8.30
2023-01-13T05:10:54.512Z,8.30
2023-01-13T05:13:41.588Z,8.30
2023-01-13T05:16:31.085Z,8.30
2023-01-13T05:19:00.880Z,8.30
2023-01-13T05:21:49.074Z,8.30
2023-01-13T05:24:36.112Z,8.30
2023-01-13T05:27:05.448Z,8.30
2023-01-13T05:29:35.386Z,8.30
2023-01-13T05:32:06.916Z,8.30
2023-01-13T05:34:36.842Z,8.30
2023-01-13T05:37:08.661Z,8.30
2023-01-13T05:39:52.076Z,8.30
2023-01-13T05:42:38.382Z,8.40
2023-01-13T05:45:09.070Z,8.30
2023-01-13T05:47:39.239Z,8.30
2023-01-13T05:50:09.591Z,8.30
2023-01-13T05:52:40.370Z,8.40
2023-01-13T05:55:10.975Z,8.40
2023-01-13T05:57:40.254Z,8.40
2023-01-13T06:00:11.324Z,8.40
2023-01-13T06:02:40.881Z,8.40
2023-01-13T06:05:11.109Z,8.40
2023-01-13T06:07:41.883Z,8.40
2023-01-13T06:10:12.863Z,8.40
2023-01-13T06:12:42.315Z,8.50
2023-01-13T06:15:13.042Z,8.50
2023-01-13T06:17:42.939Z,8.50
2023-01-13T06:20:13.596Z,8.50
2023-01-13T06:22:47.243Z,8.50
2023-01-13T06:25:23.382Z,8.50
2023-01-13T06:27:53.815Z,8.60
2023-01-13T06:30:23.560Z,8.50
2023-01-13T06:32:56.848Z,8.60
2023-01-13T06:35:30.046Z,8.60
2023-01-13T06:38:03.116Z,8.60
2023-01-13T06:40:32.962Z,8.60
2023-01-13T06:43:17.027Z,8.60
2023-01-13T06:45:50.983Z,8.50
2023-01-13T06:48:21.938Z,8.50
2023-01-13T06:50:52.094Z,8.50
2023-01-13T06:53:23.359Z,8.50
2023-01-13T06:55:53.388Z,8.50
2023-01-13T06:58:22.819Z,8.50
2023-01-13T07:00:52.691Z,8.50
2023-01-13T07:03:22.412Z,8.50
2023-01-13T07:05:57.036Z,8.50
2023-01-13T07:08:27.928Z,8.60
2023-01-13T07:10:58.022Z,8.50
2023-01-13T07:13:44.427Z,8.50
2023-01-13T07:16:14.287Z,8.50
2023-01-13T07:18:43.789Z,8.50
2023-01-13T07:21:19.012Z,8.60
2023-01-13T07:23:50.345Z,8.50
2023-01-13T07:26:20.081Z,8.50
2023-01-13T07:28:49.429Z,8.50
2023-01-13T07:31:21.172Z,8.50
2023-01-13T07:33:50.639Z,8.60
2023-01-13T07:36:20.640Z,8.50
2023-01-13T07:38:53.291Z,8.50
2023-01-13T07:41:41.645Z,8.60
2023-01-13T07:44:11.801Z,8.50
2023-01-13T07:46:42.227Z,8.50
2023-01-13T07:49:11.991Z,8.50
2023-01-13T07:51:42.011Z,8.60
2023-01-13T07:54:12.804Z,8.60
2023-01-13T07:56:42.465Z,8.60
2023-01-13T07:59:11.931Z,8.60
2023-01-13T08:01:41.731Z,8.60
2023-01-13T08:04:11.143Z,8.60
2023-01-13T08:06:41.731Z,8.60
2023-01-13T08:09:12.725Z,8.60
2023-01-13T08:11:42.400Z,8.60
2023-01-13T08:14:11.816Z,8.60
2023-01-13T08:16:41.575Z,8.60
2023-01-13T08:19:11.043Z,8.70
2023-01-13T08:21:40.969Z,8.70
2023-01-13T08:24:12.676Z,8.70
2023-01-13T08:26:42.353Z,8.70
2023-01-13T08:29:14.646Z,8.70
2023-01-13T08:31:44.862Z,8.70
2023-01-13T08:34:14.241Z,8.80
2023-01-13T08:36:44.027Z,8.80
2023-01-13T08:39:14.789Z,8.80
2023-01-13T08:41:58.908Z,8.80
2023-01-13T08:44:30.516Z,8.80
2023-01-13T08:47:01.156Z,8.80
2023-01-13T08:49:30.982Z,8.90
2023-01-13T08:52:00.900Z,8.90
2023-01-13T08:54:31.715Z,8.90
2023-01-13T08:57:03.575Z,8.90
2023-01-13T08:59:33.181Z,9.00
2023-01-13T09:02:04.532Z,9.00
2023-01-13T09:04:34.133Z,9.10
2023-01-13T09:07:03.838Z,9.00
2023-01-13T09:09:34.614Z,9.10
2023-01-13T09:12:21.513Z,9.10
2023-01-13T09:14:50.823Z,9.20
2023-01-13T09:17:20.783Z,9.20
2023-01-13T09:19:50.747Z,9.20
2023-01-13T09:22:22.144Z,9.20
2023-01-13T09:24:53.277Z,9.30
2023-01-13T09:27:23.695Z,9.20
2023-01-13T09:29:53.120Z,9.20
2023-01-13T09:32:22.816Z,9.20
2023-01-13T09:35:04.004Z,9.20
2023-01-13T09:37:35.654Z,9.20
2023-01-13T09:40:08.529Z,9.10
2023-01-13T09:43:12.590Z,9.10
2023-01-13T09:45:47.769Z,9.10
2023-01-13T09:48:21.358Z,9.00
2023-01-13T09:51:01.146Z,9.00
2023-01-13T09:53:34.156Z,9.00
2023-01-13T09:56:05.214Z,9.00
2023-01-13T09:58:35.768Z,9.00
2023-01-13T10:01:17.942Z,9.00
2023-01-13T10:03:49.392Z,9.10
2023-01-13T10:06:22.591Z,9.10
2023-01-13T10:08:52.722Z,9.10
2023-01-13T10:11:41.907Z,9.10
2023-01-13T10:14:18.093Z,9.20
2023-01-13T10:16:52.698Z,9.10
2023-01-13T10:19:29.512Z,9.20
2023-01-13T10:22:19.988Z,9.20
2023-01-13T10:25:12.116Z,9.30
2023-01-13T10:27:47.023Z,9.30
2023-01-13T10:30:21.664Z,9.30
2023-01-13T10:32:55.489Z,9.30
2023-01-13T10:35:54.121Z,9.40
2023-01-13T10:38:26.006Z,9.50
2023-01-13T10:40:57.816Z,9.50
2023-01-13T10:43:30.033Z,9.50
2023-01-13T10:46:04.291Z,9.70
2023-01-13T10:48:40.084Z,9.80
2023-01-13T10:51:25.226Z,9.90
2023-01-13T10:53:58.103Z,10.00
2023-01-13T10:56:30.020Z,10.10
2023-01-13T10:59:17.444Z,10.20
2023-01-13T11:02:02.307Z,10.30
2023-01-13T11:04:34.864Z,10.40
2023-01-13T11:07:06.160Z,10.40
2023-01-13T11:09:35.092Z,10.50
2023-01-13T11:12:05.517Z,10.60
2023-01-13T11:14:41.847Z,10.70
2023-01-13T11:17:28.971Z,10.70
2023-01-13T11:20:19.103Z,10.60
2023-01-13T11:22:51.546Z,10.50
2023-01-13T11:25:25.721Z,10.40
2023-01-13T11:28:00.987Z,10.50
2023-01-13T11:30:38.468Z,10.40
2023-01-13T11:33:30.206Z,10.40
2023-01-13T11:36:08.350Z,10.50
2023-01-13T11:38:48.993Z,10.50
2023-01-13T11:41:33.761Z,10.50
2023-01-13T11:44:14.718Z,10.60
2023-01-13T11:46:45.813Z,10.60
2023-01-13T11:49:25.362Z,10.80
2023-01-13T11:52:02.185Z,11.00
2023-01-13T11:54:53.951Z,11.30
2023-01-13T11:57:56.095Z,11.50
2023-01-13T12:00:34.280Z,11.50
2023-01-13T12:03:26.119Z,11.30
2023-01-13T12:06:12.668Z,11.10
2023-01-13T12:09:13.944Z,10.90
2023-01-13T12:12:11.973Z,10.90
2023-01-13T12:14:52.844Z,11.10
2023-01-13T12:17:28.676Z,11.20
2023-01-13T12:20:02.382Z,11.10
2023-01-13T12:22:36.030Z,11.10
2023-01-13T12:25:14.851Z,11.10
2023-01-13T12:27:48.005Z,10.90
2023-01-13T12:30:27.212Z,10.80
2023-01-13T12:33:02.631Z,10.70
2023-01-13T12:35:41.414Z,10.60
2023-01-13T12:38:19.642Z,10.50
2023-01-13T12:40:57.823Z,10.50
2023-01-13T12:43:44.391Z,10.50
2023-01-13T12:46:59.393Z,10.50
2023-01-13T12:49:31.927Z,10.40
2023-01-13T12:52:20.367Z,10.40
2023-01-13T12:55:10.781Z,10.30
2023-01-13T12:57:40.938Z,10.40
2023-01-13T13:00:18.683Z,10.40
2023-01-13T13:03:26.435Z,10.50
2023-01-13T13:06:02.200Z,10.40
2023-01-13T13:09:04.522Z,10.30
2023-01-13T13:11:57.506Z,10.30
2023-01-13T13:15:04.075Z,10.30
2023-01-13T13:18:01.827Z,10.20
2023-01-13T13:20:57.656Z,10.20
2023-01-13T13:26:46.074Z,10.10
2023-01-13T13:29:41.878Z,10.00
2023-01-13T13:32:37.171Z,9.90
2023-01-13T13:35:20.160Z,9.80
2023-01-13T13:38:18.526Z,9.70
2023-01-13T13:41:06.569Z,9.60
2023-01-13T13:44:01.932Z,9.50
2023-01-13T13:46:48.462Z,9.40
2023-01-13T13:49:19.567Z,9.50
2023-01-13T13:51:56.403Z,9.40
2023-01-13T13:54:25.932Z,9.40
2023-01-13T13:56:56.066Z,9.20
2023-01-13T13:59:30.809Z,9.20
2023-01-13T14:02:04.170Z,9.20
2023-01-13T14:04:35.860Z,9.20
2023-01-13T14:07:18.601Z,9.10
2023-01-13T14:09:50.362Z,9.00
2023-01-13T14:12:22.579Z,8.70
2023-01-13T14:14:56.217Z,8.30
2023-01-13T14:17:27.846Z,8.10
2023-01-13T14:20:01.523Z,7.90
2023-01-13T14:22:31.196Z,7.70
2023-01-13T14:25:02.189Z,7.70
2023-01-13T14:27:33.020Z,7.70
2023-01-13T14:30:05.900Z,7.60
2023-01-13T14:32:38.254Z,7.50
2023-01-13T14:35:09.474Z,7.50
2023-01-13T14:37:41.884Z,7.40
2023-01-13T14:40:44.877Z,7.50
2023-01-13T14:43:18.381Z,7.50
2023-01-13T14:45:59.749Z,7.50
2023-01-13T14:48:36.120Z,7.50
2023-01-13T14:51:09.780Z,7.50
2023-01-13T14:53:43.547Z,7.50
2023-01-13T14:56:44.859Z,7.40
2023-01-13T14:59:37.530Z,7.40
2023-01-13T15:02:48.143Z,7.40
2023-01-13T15:05:50.557Z,7.40
2023-01-13T15:08:34.585Z,7.40
2023-01-13T15:11:07.331Z,7.30
2023-01-13T15:13:49.439Z,7.30
2023-01-13T15:16:26.504Z,7.30
2023-01-13T15:18:56.717Z,7.30
2023-01-13T15:21:28.109Z,7.30
2023-01-13T15:23:57.052Z,7.30
2023-01-13T15:26:28.770Z,7.20
2023-01-13T15:29:00.952Z,7.20
2023-01-13T15:31:30.800Z,7.20
2023-01-13T15:34:01.013Z,7.10
2023-01-13T15:36:34.344Z,7.10
2023-01-13T15:39:04.210Z,7.10
2023-01-13T15:41:50.973Z,7.10
2023-01-13T15:44:37.485Z,7.10
2023-01-13T15:47:09.388Z,7.20
2023-01-13T15:49:41.288Z,7.20
2023-01-13T15:52:21.756Z,7.20
2023-01-13T15:54:51.450Z,7.20
2023-01-13T15:57:23.804Z,7.20
2023-01-13T15:59:56.343Z,7.20
2023-01-13T16:02:26.451Z,7.20
2023-01-13T16:04:55.942Z,7.20
2023-01-13T16:07:27.979Z,7.30
2023-01-13T16:09:57.309Z,7.20
2023-01-13T16:12:27.145Z,7.20
2023-01-13T16:14:56.453Z,7.10
2023-01-13T16:17:30.284Z,7.00
2023-01-13T16:19:59.901Z,6.90
2023-01-13T16:22:31.026Z,6.90
2023-01-13T16:25:01.547Z,6.90
2023-01-13T16:27:30.817Z,6.90
2023-01-13T16:30:00.115Z,6.90
2023-01-13T16:32:30.108Z,6.90
2023-01-13T16:34:59.851Z,6.80
2023-01-13T16:37:31.013Z,6.90
2023-01-13T16:40:01.458Z,6.90
2023-01-13T16:42:31.142Z,6.90
2023-01-13T16:45:07.345Z,6.90
2023-01-13T16:47:38.124Z,6.90
2023-01-13T16:50:08.561Z,6.90
2023-01-13T16:52:39.868Z,6.90
2023-01-13T16:55:09.257Z,6.90
2023-01-13T16:57:39.180Z,6.90
2023-01-13T17:00:11.493Z,6.90
2023-01-13T17:02:41.161Z,6.80
2023-01-13T17:05:12.954Z,6.80
2023-01-13T17:07:45.340Z,6.80
2023-01-13T17:10:16.820Z,6.80
2023-01-13T17:12:46.710Z,6.80
2023-01-13T17:15:18.025Z,6.80
2023-01-13T17:17:52.195Z,6.80
2023-01-13T17:20:21.740Z,6.80
2023-01-13T17:22:58.350Z,6.70
2023-01-13T17:25:28.051Z,6.80
2023-01-13T17:27:58.353Z,6.80
2023-01-13T17:30:27.903Z,6.80
2023-01-13T17:32:58.665Z,6.80
2023-01-13T17:35:28.135Z,6.90
2023-01-13T17:37:59.307Z,6.90
2023-01-13T17:40:29.594Z,6.90
2023-01-13T17:42:59.198Z,7.00
2023-01-13T17:45:28.544Z,6.90
2023-01-13T17:47:59.819Z,7.00
2023-01-13T17:50:31.264Z,7.00
2023-01-13T17:53:02.584Z,7.00
2023-01-13T17:55:32.064Z,7.00
2023-01-13T17:58:02.565Z,6.90
2023-01-13T18:00:32.000Z,6.90
2023-01-13T18:03:01.751Z,6.90
2023-01-13T18:05:34.268Z,6.90
2023-01-13T18:08:05.417Z,6.90
2023-01-13T18:10:35.248Z,6.90
2023-01-13T18:13:05.532Z,6.80
2023-01-13T18:15:35.235Z,6.80
2023-01-13T18:18:05.855Z,6.80
2023-01-13T18:20:52.713Z,6.80
2023-01-13T18:23:40.832Z,6.80
2023-01-13T18:26:37.678Z,6.80
2023-01-13T18:29:07.616Z,6.80
2023-01-13T18:31:36.986Z,6.80
2023-01-13T18:34:06.623Z,6.80
2023-01-13T18:36:36.261Z,6.70
2023-01-13T18:39:07.520Z,6.70
2023-01-13T18:41:53.832Z,6.70
2023-01-13T18:44:23.838Z,6.70
2023-01-13T18:46:53.674Z,6.60
2023-01-13T18:49:23.587Z,6.60
2023-01-13T18:51:53.140Z,6.60
2023-01-13T18:54:24.397Z,6.60
2023-01-13T18:56:54.459Z,6.60
2023-01-13T18:59:25.303Z,6.60
2023-01-13T19:01:55.237Z,6.60
2023-01-13T19:04:25.127Z,6.60
2023-01-13T19:07:00.380Z,6.60
2023-01-13T19:09:35.107Z,6.60
2023-01-13T19:12:06.404Z,6.60
2023-01-13T19:14:37.877Z,6.60
2023-01-13T19:17:09.907Z,6.60
2023-01-13T19:19:44.039Z,6.60
2023-01-13T19:22:14.498Z,6.50
2023-01-13T19:24:45.869Z,6.50
2023-01-13T19:27:16.164Z,6.50
2023-01-13T19:29:52.014Z,6.50
2023-01-13T19:32:23.068Z,6.40
2023-01-13T19:34:55.193Z,6.40
2023-01-13T19:37:30.247Z,6.40
2023-01-13T19:40:09.443Z,6.30
2023-01-13T19:42:56.022Z,6.40
2023-01-13T19:45:30.941Z,6.30
2023-01-13T19:48:04.820Z,6.30
2023-01-13T19:50:38.736Z,6.30
2023-01-13T19:53:08.983Z,6.30
2023-01-13T19:55:48.067Z,6.30
2023-01-13T19:58:19.083Z,6.30
2023-01-13T20:00:49.086Z,6.20
2023-01-13T20:03:20.877Z,6.30
2023-01-13T20:05:52.296Z,6.30
2023-01-13T20:08:22.094Z,6.30
2023-01-13T20:11:13.465Z,6.30
2023-01-13T20:13:43.144Z,6.30
2023-01-13T20:16:12.954Z,6.30
2023-01-13T20:18:42.275Z,6.30
2023-01-13T20:21:12.099Z,6.30
2023-01-13T20:23:42.629Z,6.30
2023-01-13T20:26:14.077Z,6.30
2023-01-13T20:28:43.960Z,6.30
2023-01-13T20:31:15.008Z,6.30
2023-01-13T20:33:45.158Z,6.30
2023-01-13T20:36:27.426Z,6.30
2023-01-13T20:39:00.789Z,6.30
2023-01-13T20:41:50.161Z,6.20
2023-01-13T20:44:19.694Z,6.20
2023-01-13T20:46:51.001Z,6.20
2023-01-13T20:49:20.531Z,6.20
2023-01-13T20:51:50.735Z,6.20
2023-01-13T20:54:20.419Z,6.20
2023-01-13T20:56:52.065Z,6.10
2023-01-13T20:59:23.070Z,6.10
2023-01-13T21:01:53.378Z,6.00
2023-01-13T21:04:22.787Z,6.00
2023-01-13T21:06:53.446Z,6.00
2023-01-13T21:09:24.765Z,6.00
2023-01-13T21:12:13.533Z,6.00
2023-01-13T21:15:00.214Z,6.00
2023-01-13T21:17:47.299Z,6.00
2023-01-13T21:20:17.284Z,6.00
2023-01-13T21:22:47.884Z,6.00
2023-01-13T21:25:18.997Z,6.00
2023-01-13T21:27:50.268Z,6.00
2023-01-13T21:30:19.991Z,5.90
2023-01-13T21:32:49.821Z,5.90
2023-01-13T21:35:19.944Z,5.90
2023-01-13T21:37:49.747Z,5.90
2023-01-13T21:40:20.235Z,5.90
2023-01-13T21:43:08.871Z,5.90
2023-01-13T21:45:57.752Z,5.90
2023-01-13T21:48:28.951Z,5.90
2023-01-13T21:51:02.475Z,5.90
2023-01-13T21:53:32.535Z,5.80
2023-01-13T21:56:01.815Z,5.90
2023-01-13T21:58:34.249Z,5.90
2023-01-13T22:01:04.706Z,5.80
2023-01-13T22:03:56.273Z,5.80
2023-01-13T22:06:25.252Z,5.80
2023-01-13T22:09:00.157Z,5.80
2023-01-13T22:11:29.671Z,5.90
2023-01-13T22:14:10.445Z,5.90
2023-01-13T22:16:42.212Z,5.90
2023-01-13T22:19:13.395Z,6.00
2023-01-13T22:21:42.848Z,6.00
2023-01-13T22:24:13.548Z,6.00
2023-01-13T22:26:42.872Z,6.10
2023-01-13T22:29:14.007Z,6.10
2023-01-13T22:31:43.941Z,6.20
2023-01-13T22:34:14.604Z,6.20
2023-01-13T22:36:43.912Z,6.20
2023-01-13T22:39:13.952Z,6.30
2023-01-13T22:41:43.284Z,6.30
2023-01-13T22:44:14.389Z,6.30
2023-01-13T22:46:43.667Z,6.30
2023-01-13T22:49:13.731Z,6.30
2023-01-13T22:51:43.415Z,6.30
2023-01-13T22:54:13.536Z,6.30
2023-01-13T22:56:43.288Z,6.30
2023-01-13T22:59:16.346Z,6.30
2023-01-13T23:01:45.687Z,6.30
2023-01-13T23:04:15.508Z,6.20
2023-01-13T23:06:45.073Z,6.20
2023-01-13T23:09:14.729Z,6.30
2023-01-13T23:11:44.147Z,6.20
2023-01-13T23:14:15.510Z,6.20
2023-01-13T23:16:44.393Z,6.20
2023-01-13T23:19:14.379Z,6.20
2023-01-13T23:21:43.760Z,6.20
2023-01-13T23:24:13.506Z,6.20
2023-01-13T23:26:42.969Z,6.20
2023-01-13T23:29:15.601Z,6.20
2023-01-13T23:31:44.914Z,6.20
2023-01-13T23:34:14.524Z,6.20
2023-01-13T23:36:44.841Z,6.10
2023-01-13T23:39:14.554Z,6.10
2023-01-13T23:41:44.269Z,6.20
2023-01-13T23:44:14.050Z,6.20
2023-01-13T23:46:44.873Z,6.20
2023-01-13T23:49:15.091Z,6.20
2023-01-13T23:51:44.419Z,6.20
2023-01-13T23:54:14.022Z,6.20
2023-01-13T23:56:43.395Z,6.20
2023-01-13T23:59:13.238Z,6.20
